Fargo, Michigan
Current Conditions -  °F | °C
As of 8:37 PM on Friday 28 Nov 2014 (Local Time) from KPHN Reporting Station
Light Snow Light Snow  
Wind Chill: 18°   Ceiling: 2100
Heat Index: 25°   Visibility: 5mi
Dew Point: 23°   Wind: 6mph
Humidity: 93%   Direction: 170°S
Pressure: 30.14"   Gusts: NA
Location:  43.076°N, 82.6968°W
Report Text: KPHN 290137Z AUTO 17005KT 5SM -SN SCT008 OVC021 M04/M05 A3014 RMK AO2
Loading
Personal Weather Stations






























Interactive Weather Map New forecast layout! Learn more

10-Day Weather Forecast

Advertisements
Track Severe Weather on mobile